createdAt,value
2023-04-06T00:01:01.792Z,5.50
2023-04-06T00:04:03.590Z,5.47
2023-04-06T00:07:05.337Z,5.20
2023-04-06T00:10:07.453Z,5.44
2023-04-06T00:13:09.098Z,5.41
2023-04-06T00:16:10.791Z,5.47
2023-04-06T00:19:12.404Z,5.61
2023-04-06T00:22:13.973Z,5.61
2023-04-06T00:25:16.465Z,5.61
2023-04-06T00:28:18.346Z,5.61
2023-04-06T00:31:19.894Z,5.61
2023-04-06T00:34:21.686Z,5.64
2023-04-06T00:37:23.364Z,5.69
2023-04-06T00:40:25.253Z,5.70
2023-04-06T00:43:26.951Z,5.70
2023-04-06T00:46:29.411Z,5.63
2023-04-06T00:49:33.485Z,5.54
2023-04-06T00:52:36.525Z,5.44
2023-04-06T00:55:39.926Z,5.42
2023-04-06T00:58:42.107Z,5.44
2023-04-06T01:01:44.889Z,5.49
2023-04-06T01:05:02.707Z,5.38
2023-04-06T01:08:26.026Z,5.14
2023-04-06T01:11:33.417Z,5.14
2023-04-06T01:14:37.114Z,5.07
2023-04-06T01:17:38.778Z,5.06
2023-04-06T01:20:46.717Z,4.92
2023-04-06T01:23:49.530Z,4.98
2023-04-06T01:26:57.661Z,5.19
2023-04-06T01:30:01.774Z,5.28
2023-04-06T01:33:12.993Z,5.28
2023-04-06T01:36:39.318Z,5.24
2023-04-06T01:39:55.000Z,5.05
2023-04-06T01:43:11.490Z,5.34
2023-04-06T01:46:37.141Z,5.31
2023-04-06T01:49:40.523Z,5.27
2023-04-06T01:52:42.380Z,5.19
2023-04-06T01:55:45.603Z,5.21
2023-04-06T01:59:00.953Z,5.21
2023-04-06T02:02:09.872Z,5.23
2023-04-06T02:05:13.055Z,5.20
2023-04-06T02:08:15.425Z,5.25
2023-04-06T02:11:17.034Z,5.23
2023-04-06T02:14:26.863Z,5.13
2023-04-06T02:17:31.583Z,5.15
2023-04-06T02:20:33.318Z,4.92
2023-04-06T02:23:34.830Z,4.68
2023-04-06T02:26:36.422Z,4.64
2023-04-06T02:29:38.343Z,4.53
2023-04-06T02:32:40.288Z,4.76
2023-04-06T02:35:42.141Z,4.84
2023-04-06T02:38:43.759Z,4.79
2023-04-06T02:41:45.958Z,4.74
2023-04-06T02:44:50.582Z,4.81
2023-04-06T02:47:53.208Z,4.78
2023-04-06T02:50:55.462Z,4.60
2023-04-06T02:53:57.181Z,4.20
2023-04-06T02:56:58.993Z,4.11
2023-04-06T03:00:10.518Z,4.26
2023-04-06T03:03:15.225Z,4.31
2023-04-06T03:06:18.423Z,4.42
2023-04-06T03:09:20.792Z,4.38
2023-04-06T03:12:22.619Z,4.40
2023-04-06T03:15:46.550Z,4.49
2023-04-06T03:18:51.858Z,4.52
2023-04-06T03:21:53.462Z,4.44
2023-04-06T03:24:56.732Z,4.36
2023-04-06T03:27:58.457Z,4.31
2023-04-06T03:31:00.551Z,4.21
2023-04-06T03:34:18.140Z,4.04
2023-04-06T03:37:19.701Z,4.04
2023-04-06T03:40:26.360Z,4.05
2023-04-06T03:43:27.878Z,4.00
2023-04-06T03:46:30.233Z,4.40
2023-04-06T03:49:33.845Z,4.50
2023-04-06T03:52:37.100Z,4.56
2023-04-06T03:55:38.619Z,4.53
2023-04-06T03:58:40.390Z,4.41
2023-04-06T04:01:41.909Z,4.41
2023-04-06T04:04:43.543Z,4.30
2023-04-06T04:07:45.179Z,4.21
2023-04-06T04:10:47.308Z,4.12
2023-04-06T04:13:48.930Z,4.17
2023-04-06T04:16:50.916Z,5.28
2023-04-06T04:19:53.347Z,5.56
2023-04-06T04:22:54.982Z,5.60
2023-04-06T04:25:56.614Z,5.53
2023-04-06T04:28:58.208Z,5.44
2023-04-06T04:31:59.777Z,5.29
2023-04-06T04:35:01.601Z,5.29
2023-04-06T04:38:11.286Z,5.26
2023-04-06T04:41:16.636Z,5.30
2023-04-06T04:44:19.410Z,5.26
2023-04-06T04:47:21.388Z,5.28
2023-04-06T04:50:23.744Z,5.20
2023-04-06T04:53:29.990Z,5.19
2023-04-06T04:56:37.375Z,5.20
2023-04-06T04:59:50.106Z,5.16
2023-04-06T05:02:54.008Z,5.19
2023-04-06T05:06:00.251Z,5.23
2023-04-06T05:09:05.629Z,5.26
2023-04-06T05:12:08.226Z,5.25
2023-04-06T05:15:16.481Z,5.35
2023-04-06T05:18:18.613Z,5.39
2023-04-06T05:21:21.360Z,5.43
2023-04-06T05:24:31.405Z,5.45
2023-04-06T05:27:33.747Z,5.56
2023-04-06T05:30:40.651Z,5.66
2023-04-06T05:33:44.602Z,5.85
2023-04-06T05:36:49.857Z,5.89
2023-04-06T05:39:55.456Z,5.94
2023-04-06T05:42:58.478Z,6.00
2023-04-06T05:46:00.398Z,6.11
2023-04-06T05:49:02.140Z,6.18
2023-04-06T05:52:07.095Z,6.27
2023-04-06T05:55:10.746Z,5.90
2023-04-06T05:58:13.743Z,6.98
2023-04-06T06:01:15.412Z,7.15
2023-04-06T06:04:20.915Z,7.27
2023-04-06T06:07:25.858Z,7.40
2023-04-06T06:10:35.924Z,7.44
2023-04-06T06:13:39.017Z,7.48
2023-04-06T06:16:40.932Z,7.56
2023-04-06T06:19:44.169Z,7.64
2023-04-06T06:22:45.752Z,7.68
2023-04-06T06:25:52.227Z,7.81
2023-04-06T06:28:56.538Z,7.79
2023-04-06T06:31:59.009Z,7.83
2023-04-06T06:35:00.743Z,7.76
2023-04-06T06:38:03.718Z,7.76
2023-04-06T06:41:05.276Z,8.12
2023-04-06T06:44:09.999Z,8.77
2023-04-06T06:47:13.610Z,8.64
2023-04-06T06:50:15.281Z,8.72
2023-04-06T06:53:16.887Z,8.69
2023-04-06T06:56:18.491Z,8.80
2023-04-06T06:59:21.577Z,8.97
2023-04-06T07:02:23.337Z,8.84
2023-04-06T07:05:28.758Z,9.21
2023-04-06T07:08:32.313Z,9.56
2023-04-06T07:11:33.931Z,9.83
2023-04-06T07:14:35.500Z,9.95
2023-04-06T07:17:37.231Z,10.07
2023-04-06T07:20:38.899Z,10.15
2023-04-06T07:23:41.073Z,10.16
2023-04-06T07:26:43.388Z,10.55
2023-04-06T07:29:45.593Z,10.59
2023-04-06T07:32:47.466Z,10.62
2023-04-06T07:35:49.544Z,10.71
2023-04-06T07:38:51.741Z,10.81
2023-04-06T07:41:53.931Z,10.94
2023-04-06T07:44:55.710Z,11.24
2023-04-06T07:47:57.608Z,11.62
2023-04-06T07:51:05.470Z,11.91
2023-04-06T07:54:10.924Z,12.24
2023-04-06T07:57:12.488Z,12.67
2023-04-06T08:00:14.585Z,12.87
2023-04-06T08:03:17.630Z,13.10
2023-04-06T08:06:19.333Z,13.22
2023-04-06T08:09:20.936Z,13.27
2023-04-06T08:12:22.515Z,13.33
2023-04-06T08:15:24.099Z,13.43
2023-04-06T08:18:25.659Z,13.55
2023-04-06T08:21:27.225Z,13.69
2023-04-06T08:24:28.795Z,13.66
2023-04-06T08:27:30.442Z,13.52
2023-04-06T08:30:32.061Z,13.59
2023-04-06T08:33:37.484Z,13.72
2023-04-06T08:36:39.065Z,13.89
2023-04-06T08:39:40.617Z,14.07
2023-04-06T08:42:49.767Z,14.49
2023-04-06T08:45:51.775Z,14.57
2023-04-06T08:48:53.496Z,14.28
2023-04-06T08:51:56.678Z,14.04
2023-04-06T08:54:58.449Z,14.04
2023-04-06T08:58:00.608Z,14.17
2023-04-06T09:01:06.762Z,15.83
2023-04-06T09:04:12.033Z,16.27
2023-04-06T09:07:15.328Z,16.05
2023-04-06T09:10:17.979Z,16.17
2023-04-06T09:13:19.549Z,16.21
2023-04-06T09:16:21.902Z,16.17
2023-04-06T09:19:23.491Z,16.23
2023-04-06T09:22:29.338Z,16.12
2023-04-06T09:25:32.272Z,16.33
2023-04-06T09:28:55.407Z,16.10
2023-04-06T09:32:04.982Z,16.14
2023-04-06T09:35:10.730Z,16.01
2023-04-06T09:38:13.111Z,16.18
2023-04-06T09:41:22.365Z,16.36
2023-04-06T09:44:25.089Z,15.79
2023-04-06T09:47:29.567Z,15.62
2023-04-06T09:50:31.877Z,15.82
2023-04-06T09:53:38.553Z,17.32
2023-04-06T09:56:52.390Z,17.89
2023-04-06T10:00:12.114Z,17.98
2023-04-06T10:03:35.063Z,18.36
2023-04-06T10:06:38.144Z,18.30
2023-04-06T10:09:39.825Z,18.37
2023-04-06T10:12:42.557Z,18.59
2023-04-06T10:15:44.262Z,18.65
2023-04-06T10:18:55.337Z,18.51
2023-04-06T10:21:59.729Z,18.46
2023-04-06T10:25:01.368Z,18.34
2023-04-06T10:28:07.379Z,18.32
2023-04-06T10:31:08.991Z,18.43
2023-04-06T10:34:10.744Z,18.67
2023-04-06T10:37:15.091Z,18.56
2023-04-06T10:40:21.453Z,18.66
2023-04-06T10:43:24.140Z,18.66
2023-04-06T10:46:27.830Z,18.92
2023-04-06T10:49:29.470Z,18.97
2023-04-06T10:52:31.691Z,19.10
2023-04-06T10:55:33.630Z,18.88
2023-04-06T10:58:35.405Z,18.87
2023-04-06T11:01:37.319Z,19.15
2023-04-06T11:04:39.113Z,19.25
2023-04-06T11:07:41.247Z,19.17
2023-04-06T11:10:42.803Z,19.08
2023-04-06T11:13:47.355Z,19.00
2023-04-06T11:16:51.090Z,19.26
2023-04-06T11:19:52.757Z,19.59
2023-04-06T11:22:54.448Z,19.72
2023-04-06T11:25:56.064Z,19.74
2023-04-06T11:28:57.757Z,19.30
2023-04-06T11:32:04.095Z,19.32
2023-04-06T11:35:06.181Z,19.98
2023-04-06T11:38:07.848Z,20.38
2023-04-06T11:41:09.380Z,20.14
2023-04-06T11:44:10.978Z,20.00
2023-04-06T11:47:13.484Z,20.35
2023-04-06T11:50:15.735Z,20.13
2023-04-06T11:53:17.878Z,20.47
2023-04-06T11:56:26.955Z,20.49
2023-04-06T11:59:28.833Z,20.57
2023-04-06T12:02:30.522Z,20.84
2023-04-06T12:05:34.362Z,20.80
2023-04-06T12:08:35.948Z,20.47
2023-04-06T12:11:37.561Z,20.34
2023-04-06T12:14:39.163Z,20.50
2023-04-06T12:17:41.063Z,20.58
2023-04-06T12:20:42.654Z,21.73
2023-04-06T12:23:44.455Z,21.84
2023-04-06T12:26:47.069Z,21.72
2023-04-06T12:29:49.901Z,21.48
2023-04-06T12:32:51.988Z,21.35
2023-04-06T12:35:53.577Z,20.94
2023-04-06T12:38:55.169Z,21.19
2023-04-06T12:41:57.322Z,21.12
2023-04-06T12:44:58.844Z,21.44
2023-04-06T12:48:00.733Z,21.70
2023-04-06T12:51:04.806Z,21.70
2023-04-06T12:54:07.047Z,21.62
2023-04-06T12:57:08.571Z,21.11
2023-04-06T13:00:10.624Z,20.86
2023-04-06T13:03:12.279Z,20.74
2023-04-06T13:06:15.658Z,20.49
2023-04-06T13:09:17.200Z,20.72
2023-04-06T13:12:19.850Z,21.08
2023-04-06T13:15:21.367Z,20.61
2023-04-06T13:18:23.865Z,19.84
2023-04-06T13:21:25.898Z,20.00
2023-04-06T13:24:27.553Z,20.50
2023-04-06T13:27:29.134Z,20.17
2023-04-06T13:30:30.841Z,20.26
2023-04-06T13:33:32.472Z,20.35
2023-04-06T13:36:34.100Z,20.55
2023-04-06T13:39:35.686Z,20.49
2023-04-06T13:42:38.756Z,20.58
2023-04-06T13:45:40.414Z,20.35
2023-04-06T13:48:42.587Z,20.32
2023-04-06T13:51:44.279Z,20.28
2023-04-06T13:54:46.159Z,19.98
2023-04-06T13:57:47.668Z,20.12
2023-04-06T14:00:49.320Z,20.61
2023-04-06T14:03:51.094Z,20.24
2023-04-06T14:06:52.629Z,20.22
2023-04-06T14:09:54.165Z,19.77
2023-04-06T14:12:56.575Z,19.57
2023-04-06T14:15:58.453Z,20.11
2023-04-06T14:19:00.263Z,19.81
2023-04-06T14:22:01.782Z,19.57
2023-04-06T14:25:03.455Z,19.64
2023-04-06T14:28:05.068Z,19.66
2023-04-06T14:31:14.580Z,19.45
2023-04-06T14:34:17.797Z,19.95
2023-04-06T14:37:19.512Z,19.84
2023-04-06T14:40:21.030Z,19.87
2023-04-06T14:43:22.681Z,19.86
2023-04-06T14:46:24.345Z,19.16
2023-04-06T14:49:25.978Z,19.45
2023-04-06T14:52:27.458Z,19.42
2023-04-06T14:55:29.041Z,19.75
2023-04-06T14:58:30.920Z,19.63
2023-04-06T15:01:37.027Z,19.75
2023-04-06T15:04:40.781Z,19.65
2023-04-06T15:07:42.286Z,19.48
2023-04-06T15:10:43.864Z,19.48
2023-04-06T15:13:45.658Z,19.77
2023-04-06T15:16:47.194Z,19.78
2023-04-06T15:19:48.645Z,19.66
2023-04-06T15:22:50.347Z,19.52
2023-04-06T15:25:52.576Z,19.32
2023-04-06T15:28:54.128Z,19.34
2023-04-06T15:31:55.970Z,19.18
2023-04-06T15:35:00.684Z,18.89
2023-04-06T15:38:03.307Z,17.81
2023-04-06T15:41:05.258Z,20.24
2023-04-06T15:44:06.870Z,20.36
2023-04-06T15:47:08.577Z,20.00
2023-04-06T15:50:11.020Z,19.65
2023-04-06T15:53:12.744Z,19.59
2023-04-06T15:56:14.593Z,19.97
2023-04-06T15:59:16.965Z,19.94
2023-04-06T16:02:20.151Z,19.83
2023-04-06T16:05:21.767Z,19.62
2023-04-06T16:08:23.275Z,19.61
2023-04-06T16:11:24.738Z,19.38
2023-04-06T16:14:26.240Z,19.27
2023-04-06T16:17:27.963Z,19.15
2023-04-06T16:20:30.555Z,19.26
2023-04-06T16:23:32.209Z,19.21
2023-04-06T16:26:34.061Z,19.34
2023-04-06T16:29:37.101Z,19.37
2023-04-06T16:32:38.853Z,19.19
2023-04-06T16:35:45.536Z,19.12
2023-04-06T16:38:47.058Z,18.92
2023-04-06T16:41:48.525Z,18.95
2023-04-06T16:44:50.103Z,19.07
2023-04-06T16:47:51.844Z,18.85
2023-04-06T16:50:53.472Z,18.63
2023-04-06T16:53:55.315Z,18.74
2023-04-06T16:56:56.826Z,18.81
2023-04-06T16:59:58.729Z,18.93
2023-04-06T17:03:00.620Z,18.90
2023-04-06T17:06:02.180Z,18.84
2023-04-06T17:09:03.668Z,18.82
2023-04-06T17:12:05.583Z,18.63
2023-04-06T17:15:07.673Z,18.45
2023-04-06T17:18:10.410Z,18.40
2023-04-06T17:21:14.417Z,18.36
2023-04-06T17:24:15.936Z,18.44
2023-04-06T17:27:17.458Z,18.50
2023-04-06T17:30:18.920Z,18.36
2023-04-06T17:33:20.386Z,18.32
2023-04-06T17:36:22.017Z,18.25
2023-04-06T17:39:23.601Z,18.25
2023-04-06T17:42:25.787Z,18.26
2023-04-06T17:45:27.429Z,18.25
2023-04-06T17:48:29.847Z,18.26
2023-04-06T17:51:31.657Z,18.18
2023-04-06T17:54:35.615Z,17.95
2023-04-06T17:57:40.026Z,17.81
2023-04-06T18:00:43.457Z,17.76
2023-04-06T18:03:44.872Z,17.58
2023-04-06T18:06:46.500Z,17.42
2023-04-06T18:09:47.985Z,17.34
2023-04-06T18:12:49.920Z,17.31
2023-04-06T18:15:51.548Z,17.26
2023-04-06T18:18:55.426Z,17.26
2023-04-06T18:21:57.031Z,17.23
2023-04-06T18:25:01.296Z,17.23
2023-04-06T18:28:02.790Z,17.17
2023-04-06T18:31:04.309Z,17.19
2023-04-06T18:34:05.906Z,17.15
2023-04-06T18:37:07.840Z,17.05
2023-04-06T18:40:39.118Z,15.29
2023-04-06T18:43:41.148Z,14.23
2023-04-06T18:46:46.430Z,14.20
2023-04-06T18:49:47.972Z,13.95
2023-04-06T18:52:49.507Z,13.96
2023-04-06T18:55:51.535Z,13.90
2023-04-06T18:58:53.076Z,13.92
2023-04-06T19:01:54.720Z,13.87
2023-04-06T19:04:56.475Z,13.85
2023-04-06T19:07:58.124Z,13.89
2023-04-06T19:11:05.348Z,13.86
2023-04-06T19:14:06.858Z,13.85
2023-04-06T19:17:08.381Z,13.82
2023-04-06T19:20:10.296Z,13.82
2023-04-06T19:23:11.811Z,13.84
2023-04-06T19:26:13.735Z,13.83
2023-04-06T19:29:15.520Z,13.73
2023-04-06T19:32:17.286Z,13.67
2023-04-06T19:35:19.125Z,13.67
2023-04-06T19:38:20.680Z,13.71
2023-04-06T19:41:22.172Z,13.67
2023-04-06T19:44:23.965Z,13.64
2023-04-06T19:47:25.663Z,13.71
2023-04-06T19:50:27.173Z,13.77
2023-04-06T19:53:28.634Z,13.72
2023-04-06T19:56:31.420Z,13.62
2023-04-06T19:59:34.390Z,13.27
2023-04-06T20:02:35.982Z,13.41
2023-04-06T20:05:37.774Z,13.47
2023-04-06T20:08:39.279Z,13.53
2023-04-06T20:11:41.137Z,13.47
2023-04-06T20:14:42.681Z,13.51
2023-04-06T20:17:44.498Z,13.53
2023-04-06T20:20:46.160Z,13.56
2023-04-06T20:23:47.696Z,13.55
2023-04-06T20:26:50.599Z,13.50
2023-04-06T20:29:52.064Z,13.40
2023-04-06T20:32:53.532Z,13.38
2023-04-06T20:35:58.714Z,13.47
2023-04-06T20:39:00.338Z,13.56
2023-04-06T20:42:01.825Z,13.62
2023-04-06T20:45:03.517Z,13.61
2023-04-06T20:48:05.183Z,13.65
2023-04-06T20:51:06.700Z,13.69
2023-04-06T20:54:08.402Z,13.64
2023-04-06T20:57:09.924Z,13.63
2023-04-06T21:00:12.193Z,13.63
2023-04-06T21:03:13.700Z,13.56
2023-04-06T21:06:15.800Z,13.54
2023-04-06T21:09:19.644Z,13.49
2023-04-06T21:12:21.172Z,13.50
2023-04-06T21:15:22.824Z,13.55
2023-04-06T21:18:24.937Z,13.59
2023-04-06T21:21:26.509Z,13.56
2023-04-06T21:24:28.017Z,13.56
2023-04-06T21:27:29.783Z,13.58
2023-04-06T21:30:37.085Z,13.57
2023-04-06T21:33:38.604Z,13.59
2023-04-06T21:36:41.307Z,13.53
2023-04-06T21:39:42.951Z,13.54
2023-04-06T21:42:44.424Z,13.48
2023-04-06T21:45:50.896Z,13.46
2023-04-06T21:48:52.712Z,13.44
2023-04-06T21:51:54.211Z,13.34
2023-04-06T21:54:55.715Z,13.31
2023-04-06T21:57:57.184Z,13.50
2023-04-06T22:00:58.925Z,13.59
2023-04-06T22:04:02.078Z,13.64
2023-04-06T22:07:03.857Z,13.67
2023-04-06T22:10:05.626Z,13.69
2023-04-06T22:13:07.222Z,13.63
2023-04-06T22:16:08.843Z,13.67
2023-04-06T22:19:10.642Z,13.66
2023-04-06T22:22:12.350Z,13.65
2023-04-06T22:25:14.860Z,13.62
2023-04-06T22:28:16.365Z,13.56
2023-04-06T22:31:17.896Z,13.42
2023-04-06T22:34:19.575Z,13.49
2023-04-06T22:37:21.193Z,13.55
2023-04-06T22:40:23.155Z,13.75
2023-04-06T22:43:24.621Z,13.81
2023-04-06T22:46:26.062Z,13.73
2023-04-06T22:49:27.563Z,13.72
2023-04-06T22:52:29.081Z,13.66
2023-04-06T22:55:31.139Z,13.70
2023-04-06T22:58:32.645Z,13.60
2023-04-06T23:01:34.203Z,13.64
2023-04-06T23:04:35.814Z,13.69
2023-04-06T23:07:37.326Z,13.70
2023-04-06T23:10:41.927Z,13.66
2023-04-06T23:13:43.340Z,13.66
2023-04-06T23:16:45.363Z,13.56
2023-04-06T23:19:47.254Z,13.62
2023-04-06T23:22:48.721Z,13.76
2023-04-06T23:25:50.172Z,13.80
2023-04-06T23:28:51.788Z,13.70
2023-04-06T23:31:53.321Z,13.63
2023-04-06T23:34:54.797Z,13.71
2023-04-06T23:37:56.349Z,13.81
2023-04-06T23:40:57.837Z,13.89
2023-04-06T23:43:59.482Z,13.79
2023-04-06T23:47:01.423Z,13.90
2023-04-06T23:50:03.274Z,13.99
2023-04-06T23:53:04.999Z,14.02
2023-04-06T23:56:06.889Z,14.01
2023-04-06T23:59:08.402Z,13.95
